Aérodrome :
LOGIN :

S'inscrire | Disclaimer

   EN    FR    IT 

 










Légende :    VFR   VFR Marginal   IFR   IFR Intensif   IFR Très Intensif
Visi : 
Plafond : 
>= 8 km
>= 3000ft
5 à 8 km
1000 à 3000 ft
1500m à 5 km
500 à 1000 ft
800 à 1500m
200 à 500 ft
< 800m
< 200 ft
Symboles :   Orages  Brouillard  Fortes neiges  Fortes précipitations  Vent > 20 kt
SIGMETs :   Divers  Orages  Givrage  Turbulence  Onde Orograph.  Cendres Volcan.






- Altitude de l'aérodrome : 47 ft
- Code IATA : BDS


LIBR - Casale Arpt. Brindisi

DERNIER METAR :
  • 261020Z 36009KT 9999 SCT020 17/11 Q1023

METARs EXPIRÉS :
  • 260950Z 35010KT 9999 SCT020 17/11 Q1023
  • 260920Z 35008KT 9999 SCT020 16/11 Q1024
  • 260850Z 33010KT 9999 SCT020 16/13 Q1024
  • 260820Z 31011KT 9999 SCT020 15/13 Q1023
  • 260750Z 30009KT 9999 SCT020 14/12 Q1023
  • 260720Z 29007KT 9999 SCT020 13/12 Q1023

TAF TAF LIBR
Valide du 26 à 06h jusqu'au 27 à 06h UTC


260500Z 2606/2706 01008KT 9999 SCT030
BECMG 2608/2610 31010KT
BECMG 2618/2620 VRB05KT



MET'MAP, la Météo Aéronautique d'un coup d'oeil ! - Copyright ORBIFLY Décembre 2007 - Disclaimer

ORBIFLY MET'MAP TEAM :

Programmation & Développement : Alexandra Zaïnal
Sur une idée originale de : Baudouin d'Aumeries
Assistance à la programmation : Marc-Olivier Méhu
Soutien technique & logistique : Manuel Goepfert

Contact : metmap@orbifly.com




SOURCES & CREDITS :

   NOAA